createdAt,value
2022-12-27T00:00:02.783Z,3.94
2022-12-27T00:01:03.164Z,3.95
2022-12-27T00:02:02.296Z,3.89
2022-12-27T00:03:02.171Z,3.88
2022-12-27T00:04:01.719Z,3.89
2022-12-27T00:05:01.959Z,3.91
2022-12-27T00:06:01.824Z,3.93
2022-12-27T00:07:02.295Z,3.91
2022-12-27T00:08:02.490Z,3.89
2022-12-27T00:09:02.815Z,3.90
2022-12-27T00:10:02.559Z,3.84
2022-12-27T00:11:02.639Z,3.85
2022-12-27T00:12:02.561Z,3.85
2022-12-27T00:13:02.447Z,3.86
2022-12-27T00:14:02.713Z,3.87
2022-12-27T00:15:02.324Z,3.88
2022-12-27T00:16:02.555Z,3.86
2022-12-27T00:17:01.869Z,3.86
2022-12-27T00:18:02.218Z,3.87
2022-12-27T00:19:01.986Z,3.86
2022-12-27T00:20:10.363Z,3.87
2022-12-27T00:21:02.269Z,3.88
2022-12-27T00:22:02.071Z,3.87
2022-12-27T00:23:02.121Z,3.87
2022-12-27T00:24:02.005Z,3.85
2022-12-27T00:25:02.291Z,3.86
2022-12-27T00:26:02.049Z,3.87
2022-12-27T00:27:02.567Z,3.86
2022-12-27T00:28:02.984Z,3.87
2022-12-27T00:29:02.866Z,3.86
2022-12-27T00:30:02.756Z,3.84
2022-12-27T00:31:03.029Z,3.83
2022-12-27T00:32:01.840Z,3.80
2022-12-27T00:33:01.461Z,3.78
2022-12-27T00:34:01.909Z,3.78
2022-12-27T00:35:01.693Z,3.78
2022-12-27T00:36:02.021Z,3.76
2022-12-27T00:37:02.068Z,3.74
2022-12-27T00:38:02.066Z,3.71
2022-12-27T00:39:02.369Z,3.74
2022-12-27T00:40:02.611Z,3.79
2022-12-27T00:41:02.081Z,3.83
2022-12-27T00:42:01.786Z,3.82
2022-12-27T00:43:01.497Z,3.82
2022-12-27T00:44:01.782Z,3.81
2022-12-27T00:45:01.409Z,3.85
2022-12-27T00:46:01.945Z,3.76
2022-12-27T00:47:02.404Z,3.77
2022-12-27T00:48:02.379Z,3.78
2022-12-27T00:49:02.100Z,3.79
2022-12-27T00:50:02.658Z,3.79
2022-12-27T00:51:02.561Z,3.79
2022-12-27T00:52:02.380Z,3.77
2022-12-27T00:53:02.437Z,3.72
2022-12-27T00:54:02.217Z,3.64
2022-12-27T00:55:02.593Z,3.61
2022-12-27T00:56:02.305Z,3.66
2022-12-27T00:57:01.730Z,3.67
2022-12-27T00:58:02.092Z,3.71
2022-12-27T00:59:01.956Z,3.70
2022-12-27T01:00:07.927Z,3.70
2022-12-27T01:01:01.703Z,3.71
2022-12-27T01:02:02.756Z,3.69
2022-12-27T01:03:02.832Z,3.65
2022-12-27T01:04:02.641Z,3.62
2022-12-27T01:05:03.024Z,3.61
2022-12-27T01:06:02.675Z,3.55
2022-12-27T01:07:02.898Z,3.57
2022-12-27T01:08:03.153Z,3.55
2022-12-27T01:09:03.003Z,3.58
2022-12-27T01:10:02.981Z,3.60
2022-12-27T01:11:03.277Z,3.61
2022-12-27T01:12:02.926Z,3.64
2022-12-27T01:13:02.593Z,3.67
2022-12-27T01:14:02.902Z,3.71
2022-12-27T01:15:02.922Z,3.71
2022-12-27T01:16:02.563Z,3.67
2022-12-27T01:17:02.646Z,3.65
2022-12-27T01:18:03.055Z,3.67
2022-12-27T01:19:02.853Z,3.65
2022-12-27T01:20:02.742Z,3.65
2022-12-27T01:21:03.278Z,3.68
2022-12-27T01:22:03.241Z,3.70
2022-12-27T01:23:03.482Z,3.73
2022-12-27T01:24:03.296Z,3.73
2022-12-27T01:25:03.768Z,3.72
2022-12-27T01:26:03.164Z,3.71
2022-12-27T01:27:02.828Z,3.69
2022-12-27T01:28:02.458Z,3.69
2022-12-27T01:29:02.437Z,3.73
2022-12-27T01:30:02.400Z,3.70
2022-12-27T01:31:02.886Z,3.72
2022-12-27T01:32:03.452Z,3.73
2022-12-27T01:34:03.034Z,3.70
2022-12-27T01:35:03.139Z,3.67
2022-12-27T01:36:02.973Z,3.67
2022-12-27T01:37:03.108Z,3.69
2022-12-27T01:38:03.538Z,3.67
2022-12-27T01:39:03.024Z,3.67
2022-12-27T01:40:03.473Z,3.60
2022-12-27T01:41:02.964Z,3.52
2022-12-27T01:42:03.334Z,3.50
2022-12-27T01:43:03.625Z,3.49
2022-12-27T01:44:03.224Z,3.49
2022-12-27T01:45:03.457Z,3.42
2022-12-27T01:46:03.003Z,3.40
2022-12-27T01:47:03.194Z,3.48
2022-12-27T01:48:03.436Z,3.53
2022-12-27T01:49:05.273Z,3.57
2022-12-27T01:50:03.708Z,3.62
2022-12-27T01:51:03.430Z,3.66
2022-12-27T01:52:02.770Z,3.69
2022-12-27T01:53:02.780Z,3.71
2022-12-27T01:54:02.731Z,3.71
2022-12-27T01:55:03.215Z,3.73
2022-12-27T01:56:03.320Z,3.72
2022-12-27T01:57:02.680Z,3.72
2022-12-27T01:58:02.432Z,3.71
2022-12-27T01:59:02.176Z,3.72
2022-12-27T02:00:02.534Z,3.73
2022-12-27T02:01:02.722Z,3.70
2022-12-27T02:02:03.117Z,3.70
2022-12-27T02:03:02.831Z,3.69
2022-12-27T02:04:02.471Z,3.64
2022-12-27T02:05:02.605Z,3.59
2022-12-27T02:06:03.152Z,3.59
2022-12-27T02:07:03.345Z,3.61
2022-12-27T02:08:03.437Z,3.63
2022-12-27T02:09:03.195Z,3.63
2022-12-27T02:10:03.243Z,3.64
2022-12-27T02:11:03.007Z,3.68
2022-12-27T02:12:02.354Z,3.74
2022-12-27T02:13:02.363Z,3.75
2022-12-27T02:14:02.739Z,3.77
2022-12-27T02:15:02.374Z,3.74
2022-12-27T02:16:02.834Z,3.74
2022-12-27T02:17:02.587Z,3.76
2022-12-27T02:18:02.894Z,3.77
2022-12-27T02:19:02.652Z,3.78
2022-12-27T02:20:03.020Z,3.79
2022-12-27T02:21:03.109Z,3.77
2022-12-27T02:22:02.813Z,3.80
2022-12-27T02:23:03.398Z,3.80
2022-12-27T02:24:03.205Z,3.83
2022-12-27T02:25:03.179Z,3.82
2022-12-27T02:26:03.302Z,3.83
2022-12-27T02:27:02.357Z,3.86
2022-12-27T02:28:02.495Z,3.83
2022-12-27T02:29:02.295Z,3.83
2022-12-27T02:30:02.648Z,3.83
2022-12-27T02:31:02.607Z,3.75
2022-12-27T02:32:02.447Z,3.75
2022-12-27T02:33:02.460Z,3.74
2022-12-27T02:34:02.863Z,3.76
2022-12-27T02:35:02.695Z,3.73
2022-12-27T02:36:02.385Z,3.69
2022-12-27T02:37:03.412Z,3.63
2022-12-27T02:38:02.845Z,3.58
2022-12-27T02:39:02.944Z,3.57
2022-12-27T02:40:03.398Z,3.63
2022-12-27T02:41:03.051Z,3.69
2022-12-27T02:42:03.294Z,3.70
2022-12-27T02:43:03.515Z,3.71
2022-12-27T02:44:03.189Z,3.72
2022-12-27T02:45:03.533Z,3.67
2022-12-27T02:46:03.087Z,3.62
2022-12-27T02:47:03.522Z,3.60
2022-12-27T02:48:03.671Z,3.56
2022-12-27T02:49:03.400Z,3.52
2022-12-27T02:50:03.117Z,3.52
2022-12-27T02:51:03.449Z,3.51
2022-12-27T02:52:02.924Z,3.48
2022-12-27T02:53:02.647Z,3.53
2022-12-27T02:54:02.851Z,3.61
2022-12-27T02:55:02.679Z,3.61
2022-12-27T02:56:02.471Z,3.63
2022-12-27T02:57:02.770Z,3.65
2022-12-27T02:58:02.797Z,3.69
2022-12-27T02:59:02.822Z,3.68
2022-12-27T03:00:02.613Z,3.69
2022-12-27T03:01:03.001Z,3.73
2022-12-27T03:02:03.442Z,3.63
2022-12-27T03:03:02.916Z,3.59
2022-12-27T03:04:02.872Z,3.57
2022-12-27T03:05:03.208Z,3.61
2022-12-27T03:06:03.376Z,3.64
2022-12-27T03:07:03.408Z,3.67
2022-12-27T03:08:03.340Z,3.62
2022-12-27T03:09:03.363Z,3.55
2022-12-27T03:10:02.847Z,3.49
2022-12-27T03:11:02.946Z,3.43
2022-12-27T03:12:02.677Z,3.36
2022-12-27T03:13:02.712Z,3.36
2022-12-27T03:14:02.480Z,3.37
2022-12-27T03:15:02.518Z,3.39
2022-12-27T03:16:02.999Z,3.39
2022-12-27T03:17:02.634Z,3.37
2022-12-27T03:18:02.950Z,3.36
2022-12-27T03:19:02.663Z,3.32
2022-12-27T03:20:03.252Z,3.35
2022-12-27T03:21:02.859Z,3.35
2022-12-27T03:22:02.353Z,3.34
2022-12-27T03:23:02.292Z,3.38
2022-12-27T03:24:02.904Z,3.38
2022-12-27T03:25:02.286Z,3.39
2022-12-27T03:26:02.868Z,3.41
2022-12-27T03:27:02.918Z,3.41
2022-12-27T03:28:02.807Z,3.46
2022-12-27T03:29:02.382Z,3.42
2022-12-27T03:30:02.768Z,3.40
2022-12-27T03:31:02.564Z,3.40
2022-12-27T03:32:02.920Z,3.41
2022-12-27T03:33:03.521Z,3.44
2022-12-27T03:34:03.549Z,3.49
2022-12-27T03:35:03.221Z,3.47
2022-12-27T03:36:03.225Z,3.49
2022-12-27T03:37:02.460Z,3.48
2022-12-27T03:38:02.886Z,3.50
2022-12-27T03:39:02.443Z,3.48
2022-12-27T03:40:02.866Z,3.48
2022-12-27T03:41:02.353Z,3.46
2022-12-27T03:42:02.637Z,3.45
2022-12-27T03:43:02.677Z,3.48
2022-12-27T03:44:02.994Z,3.48
2022-12-27T03:45:02.768Z,3.50
2022-12-27T03:46:03.035Z,3.46
2022-12-27T03:47:02.883Z,3.47
2022-12-27T03:48:02.674Z,3.45
2022-12-27T03:49:03.170Z,3.43
2022-12-27T03:50:02.592Z,3.48
2022-12-27T03:51:02.628Z,3.51
2022-12-27T03:52:02.361Z,3.54
2022-12-27T03:53:02.435Z,3.55
2022-12-27T03:54:02.245Z,3.53
2022-12-27T03:55:02.749Z,3.55
2022-12-27T03:56:02.509Z,3.57
2022-12-27T03:57:02.819Z,3.58
2022-12-27T03:58:02.917Z,3.59
2022-12-27T03:59:03.356Z,3.61
2022-12-27T04:00:03.036Z,3.60
2022-12-27T04:01:02.852Z,3.54
2022-12-27T04:02:02.595Z,3.49
2022-12-27T04:03:02.480Z,3.45
2022-12-27T04:04:02.597Z,3.46
2022-12-27T04:05:02.395Z,3.46
2022-12-27T04:06:02.781Z,3.37
2022-12-27T04:07:02.174Z,3.30
2022-12-27T04:08:02.489Z,3.25
2022-12-27T04:09:02.342Z,3.28
2022-12-27T04:10:02.093Z,3.26
2022-12-27T04:11:02.347Z,3.24
2022-12-27T04:12:03.056Z,3.28
2022-12-27T04:13:02.689Z,3.30
2022-12-27T04:14:02.609Z,3.28
2022-12-27T04:15:03.298Z,3.26
2022-12-27T04:16:02.591Z,3.26
2022-12-27T04:17:03.224Z,3.21
2022-12-27T04:18:02.935Z,3.19
2022-12-27T04:19:02.688Z,3.13
2022-12-27T04:20:02.770Z,3.11
2022-12-27T04:21:02.912Z,3.08
2022-12-27T04:22:02.465Z,3.04
2022-12-27T04:23:02.231Z,3.00
2022-12-27T04:24:02.232Z,3.02
2022-12-27T04:25:02.284Z,2.99
2022-12-27T04:26:02.290Z,2.98
2022-12-27T04:27:03.136Z,3.00
2022-12-27T04:28:03.221Z,3.03
2022-12-27T04:29:02.742Z,3.02
2022-12-27T04:30:03.119Z,3.03
2022-12-27T04:31:02.653Z,3.02
2022-12-27T04:32:02.158Z,3.04
2022-12-27T04:33:02.166Z,3.06
2022-12-27T04:34:01.716Z,3.05
2022-12-27T04:35:01.786Z,3.04
2022-12-27T04:36:06.140Z,3.04
2022-12-27T04:37:02.143Z,3.04
2022-12-27T04:38:02.120Z,3.03
2022-12-27T04:39:01.695Z,3.02
2022-12-27T04:40:01.789Z,3.03
2022-12-27T04:41:02.121Z,3.03
2022-12-27T04:42:02.393Z,3.02
2022-12-27T04:43:02.662Z,3.03
2022-12-27T04:44:02.453Z,2.99
2022-12-27T04:45:02.234Z,3.00
2022-12-27T04:46:02.558Z,2.98
2022-12-27T04:47:02.673Z,2.99
2022-12-27T04:48:02.336Z,3.00
2022-12-27T04:49:02.686Z,2.99
2022-12-27T04:50:02.484Z,2.98
2022-12-27T04:51:03.239Z,2.99
2022-12-27T04:52:02.866Z,2.98
2022-12-27T04:53:02.935Z,2.97
2022-12-27T04:54:02.813Z,2.95
2022-12-27T04:55:03.106Z,2.95
2022-12-27T04:56:02.886Z,2.97
2022-12-27T04:57:02.197Z,3.01
2022-12-27T04:58:01.893Z,3.07
2022-12-27T04:59:02.237Z,3.14
2022-12-27T05:00:02.009Z,3.20
2022-12-27T05:01:01.799Z,3.27
2022-12-27T05:02:02.875Z,3.32
2022-12-27T05:03:02.842Z,3.40
2022-12-27T05:04:02.605Z,3.42
2022-12-27T05:05:02.314Z,3.45
2022-12-27T05:06:02.733Z,3.52
2022-12-27T05:07:02.633Z,3.56
2022-12-27T05:08:02.973Z,3.60
2022-12-27T05:09:03.063Z,3.62
2022-12-27T05:10:02.817Z,3.67
2022-12-27T05:11:02.815Z,3.75
2022-12-27T05:12:02.246Z,3.83
2022-12-27T05:13:02.624Z,3.90
2022-12-27T05:14:02.442Z,3.96
2022-12-27T05:15:02.912Z,4.02
2022-12-27T05:16:02.670Z,4.08
2022-12-27T05:17:03.002Z,4.14
2022-12-27T05:18:02.759Z,4.19
2022-12-27T05:19:03.062Z,4.24
2022-12-27T05:20:03.017Z,4.27
2022-12-27T05:21:02.543Z,4.31
2022-12-27T05:22:01.856Z,4.34
2022-12-27T05:23:02.351Z,4.38
2022-12-27T05:24:05.357Z,4.43
2022-12-27T05:25:02.163Z,4.46
2022-12-27T05:26:02.127Z,4.48
2022-12-27T05:27:02.385Z,4.51
2022-12-27T05:28:02.780Z,4.52
2022-12-27T05:29:02.516Z,4.55
2022-12-27T05:30:02.761Z,4.58
2022-12-27T05:31:02.437Z,4.58
2022-12-27T05:32:06.783Z,4.61
2022-12-27T05:33:02.554Z,4.60
2022-12-27T05:34:02.999Z,4.62
2022-12-27T05:35:02.942Z,4.64
2022-12-27T05:36:02.739Z,4.67
2022-12-27T05:37:03.100Z,4.70
2022-12-27T05:38:02.793Z,4.72
2022-12-27T05:39:02.667Z,4.76
2022-12-27T05:40:02.918Z,4.79
2022-12-27T05:41:02.885Z,4.81
2022-12-27T05:42:02.321Z,4.84
2022-12-27T05:43:02.285Z,4.87
2022-12-27T05:44:07.076Z,4.90
2022-12-27T05:45:02.149Z,4.93
2022-12-27T05:46:02.554Z,4.95
2022-12-27T05:47:02.329Z,4.98
2022-12-27T05:48:02.081Z,5.00
2022-12-27T05:49:01.701Z,5.00
2022-12-27T05:50:02.085Z,5.01
2022-12-27T05:51:01.748Z,5.02
2022-12-27T05:52:02.209Z,5.01
2022-12-27T05:53:02.517Z,5.01
2022-12-27T05:54:02.732Z,5.02
2022-12-27T05:55:02.439Z,5.02
2022-12-27T05:56:02.790Z,5.02
2022-12-27T05:57:02.845Z,5.04
2022-12-27T05:58:02.251Z,5.05
2022-12-27T05:59:02.713Z,5.05
2022-12-27T06:00:02.593Z,5.05
2022-12-27T06:01:02.711Z,5.06
2022-12-27T06:02:02.188Z,5.07
2022-12-27T06:03:02.397Z,5.05
2022-12-27T06:04:02.377Z,5.05
2022-12-27T06:05:02.017Z,5.05
2022-12-27T06:06:02.176Z,5.05
2022-12-27T06:07:02.505Z,5.05
2022-12-27T06:08:02.961Z,5.07
2022-12-27T06:09:02.862Z,5.07
2022-12-27T06:10:02.753Z,5.08
2022-12-27T06:11:02.997Z,5.08
2022-12-27T06:12:02.048Z,5.08
2022-12-27T06:13:02.408Z,5.08
2022-12-27T06:14:02.269Z,5.06
2022-12-27T06:15:02.434Z,5.05
2022-12-27T06:16:02.250Z,5.04
2022-12-27T06:17:02.042Z,5.04
2022-12-27T06:18:02.036Z,5.02
2022-12-27T06:19:02.497Z,4.97
2022-12-27T06:20:02.306Z,4.94
2022-12-27T06:21:02.027Z,4.93
2022-12-27T06:22:02.857Z,4.91
2022-12-27T06:23:02.798Z,4.91
2022-12-27T06:24:02.627Z,4.88
2022-12-27T06:25:02.988Z,4.87
2022-12-27T06:26:02.830Z,4.87
2022-12-27T06:27:02.352Z,4.89
2022-12-27T06:28:02.189Z,4.90
2022-12-27T06:29:02.421Z,4.90
2022-12-27T06:30:02.408Z,4.90
2022-12-27T06:31:02.102Z,4.90
2022-12-27T06:32:02.530Z,4.90
2022-12-27T06:33:02.340Z,4.89
2022-12-27T06:34:02.494Z,4.89
2022-12-27T06:35:02.331Z,4.88
2022-12-27T06:36:02.849Z,4.88
2022-12-27T06:37:02.048Z,4.89
2022-12-27T06:38:01.877Z,4.88
2022-12-27T06:39:02.420Z,4.88
2022-12-27T06:40:01.974Z,4.90
2022-12-27T06:41:01.875Z,4.95
2022-12-27T06:42:02.599Z,4.93
2022-12-27T06:43:02.431Z,4.90
2022-12-27T06:44:02.821Z,4.91
2022-12-27T06:45:02.518Z,4.92
2022-12-27T06:46:02.851Z,4.90
2022-12-27T06:47:02.063Z,4.89
2022-12-27T06:48:02.069Z,4.92
2022-12-27T06:49:02.036Z,4.90
2022-12-27T06:50:02.121Z,4.91
2022-12-27T06:51:02.361Z,4.91
2022-12-27T06:52:02.346Z,4.91
2022-12-27T06:53:02.121Z,4.91
2022-12-27T06:54:02.647Z,4.93
2022-12-27T06:55:02.125Z,4.92
2022-12-27T06:56:02.267Z,4.94
2022-12-27T06:57:02.498Z,4.94
2022-12-27T06:58:02.302Z,4.98
2022-12-27T06:59:02.744Z,4.99
2022-12-27T07:00:02.320Z,5.01
2022-12-27T07:01:03.277Z,5.04
2022-12-27T07:02:02.594Z,5.06
2022-12-27T07:03:02.633Z,5.10
2022-12-27T07:04:02.704Z,5.12
2022-12-27T07:05:02.517Z,5.14
2022-12-27T07:06:02.920Z,5.19
2022-12-27T07:07:03.234Z,5.21
2022-12-27T07:08:03.189Z,5.25
2022-12-27T07:09:03.361Z,5.30
2022-12-27T07:10:03.123Z,5.33
2022-12-27T07:11:03.373Z,5.37
2022-12-27T07:12:03.216Z,5.40
2022-12-27T07:13:02.586Z,5.43
2022-12-27T07:14:03.180Z,5.45
2022-12-27T07:15:02.747Z,5.47
2022-12-27T07:16:02.590Z,5.47
2022-12-27T07:17:03.025Z,5.46
2022-12-27T07:18:02.714Z,5.49
2022-12-27T07:19:03.213Z,5.48
2022-12-27T07:20:02.792Z,5.43
2022-12-27T07:21:02.879Z,5.39
2022-12-27T07:22:02.478Z,5.37
2022-12-27T07:23:02.167Z,5.35
2022-12-27T07:24:02.100Z,5.35
2022-12-27T07:25:02.572Z,5.34
2022-12-27T07:26:02.038Z,5.30
2022-12-27T07:27:02.755Z,5.30
2022-12-27T07:28:02.354Z,5.27
2022-12-27T07:29:02.336Z,5.24
2022-12-27T07:30:02.385Z,5.25
2022-12-27T07:31:02.449Z,5.23
2022-12-27T07:32:03.283Z,5.19
2022-12-27T07:33:03.423Z,5.18
2022-12-27T07:34:02.960Z,5.17
2022-12-27T07:35:03.418Z,5.15
2022-12-27T07:36:03.304Z,5.14
2022-12-27T07:37:02.534Z,5.12
2022-12-27T07:38:02.550Z,5.14
2022-12-27T07:39:02.020Z,5.14
2022-12-27T07:40:02.339Z,5.14
2022-12-27T07:41:02.103Z,5.16
2022-12-27T07:42:07.906Z,5.17
2022-12-27T07:43:02.085Z,5.19
2022-12-27T07:44:02.267Z,5.19
2022-12-27T07:45:02.124Z,5.20
2022-12-27T07:46:02.106Z,5.21
2022-12-27T07:47:02.407Z,5.26
2022-12-27T07:48:02.984Z,5.28
2022-12-27T07:49:02.144Z,5.31
2022-12-27T07:50:02.690Z,5.33
2022-12-27T07:51:02.303Z,5.34
2022-12-27T07:52:02.904Z,5.35
2022-12-27T07:53:02.800Z,5.37
2022-12-27T07:54:02.735Z,5.37
2022-12-27T07:55:02.678Z,5.40
2022-12-27T07:56:02.433Z,5.42
2022-12-27T07:57:03.386Z,5.46
2022-12-27T07:58:03.346Z,5.47
2022-12-27T07:59:03.468Z,5.47
2022-12-27T08:00:03.149Z,5.48
2022-12-27T08:01:03.490Z,5.50
2022-12-27T08:02:02.904Z,5.51
2022-12-27T08:03:02.547Z,5.54
2022-12-27T08:04:02.286Z,5.56
2022-12-27T08:05:02.132Z,5.57
2022-12-27T08:06:02.760Z,5.59
2022-12-27T08:07:02.998Z,5.61
2022-12-27T08:08:02.543Z,5.61
2022-12-27T08:09:02.740Z,5.63
2022-12-27T08:10:02.949Z,5.64
2022-12-27T08:11:05.722Z,5.64
2022-12-27T08:12:02.362Z,5.64
2022-12-27T08:13:02.271Z,5.65
2022-12-27T08:14:02.345Z,5.66
2022-12-27T08:15:02.456Z,5.67
2022-12-27T08:16:02.235Z,5.67
2022-12-27T08:17:02.704Z,5.68
2022-12-27T08:18:02.324Z,5.71
2022-12-27T08:19:08.170Z,5.73
2022-12-27T08:20:02.248Z,5.74
2022-12-27T08:21:02.267Z,5.75
2022-12-27T08:22:02.809Z,5.77
2022-12-27T08:23:02.454Z,5.78
2022-12-27T08:24:02.848Z,5.79
2022-12-27T08:25:02.625Z,5.81
2022-12-27T08:26:02.522Z,5.84
2022-12-27T08:27:01.824Z,5.87
2022-12-27T08:28:02.269Z,5.89
2022-12-27T08:29:02.111Z,5.90
2022-12-27T08:30:02.000Z,5.91
2022-12-27T08:31:01.983Z,5.90
2022-12-27T08:32:02.240Z,5.91
2022-12-27T08:33:02.279Z,5.93
2022-12-27T08:34:02.282Z,5.97
2022-12-27T08:35:25.277Z,5.99
2022-12-27T08:36:04.732Z,6.01
2022-12-27T08:37:02.193Z,6.02
2022-12-27T08:38:02.176Z,6.06
2022-12-27T08:39:02.557Z,6.07
2022-12-27T08:40:03.153Z,6.10
2022-12-27T08:41:02.541Z,6.13
2022-12-27T08:42:02.487Z,6.14
2022-12-27T08:43:02.994Z,6.16
2022-12-27T08:44:02.529Z,6.18
2022-12-27T08:45:02.647Z,6.20
2022-12-27T08:46:02.818Z,6.22
2022-12-27T08:47:02.090Z,6.25
2022-12-27T08:48:02.575Z,6.28
2022-12-27T08:49:02.479Z,6.28
2022-12-27T08:50:02.632Z,6.28
2022-12-27T08:51:06.005Z,6.29
2022-12-27T08:52:02.895Z,6.31
2022-12-27T08:53:03.196Z,6.32
2022-12-27T08:54:03.220Z,6.32
2022-12-27T08:55:02.987Z,6.31
2022-12-27T08:56:02.880Z,6.33
2022-12-27T08:57:02.319Z,6.34
2022-12-27T08:58:02.306Z,6.33
2022-12-27T08:59:02.599Z,6.31
2022-12-27T09:00:02.394Z,6.32
2022-12-27T09:01:02.680Z,6.33
2022-12-27T09:02:02.688Z,6.35
2022-12-27T09:03:03.109Z,6.37
2022-12-27T09:04:02.949Z,6.41
2022-12-27T09:05:03.101Z,6.43
2022-12-27T09:06:02.751Z,6.47
2022-12-27T09:07:02.984Z,6.49
2022-12-27T09:08:03.025Z,6.52
2022-12-27T09:09:03.012Z,6.55
2022-12-27T09:10:03.529Z,6.57
2022-12-27T09:11:02.909Z,6.58
2022-12-27T09:12:08.654Z,6.59
2022-12-27T09:13:02.894Z,6.62
2022-12-27T09:14:03.357Z,6.64
2022-12-27T09:15:03.101Z,6.67
2022-12-27T09:16:02.955Z,6.69
2022-12-27T09:17:02.258Z,6.71
2022-12-27T09:18:02.087Z,6.75
2022-12-27T09:19:02.279Z,6.75
2022-12-27T09:20:02.403Z,6.77
2022-12-27T09:21:02.157Z,6.80
2022-12-27T09:22:02.689Z,6.81
2022-12-27T09:23:02.898Z,6.79
2022-12-27T09:24:03.049Z,6.78
2022-12-27T09:25:03.141Z,6.79
2022-12-27T09:26:02.765Z,6.80
2022-12-27T09:27:03.119Z,6.83
2022-12-27T09:28:02.994Z,6.86
2022-12-27T09:29:03.487Z,6.88
2022-12-27T09:30:03.314Z,6.90
2022-12-27T09:31:03.619Z,6.91
2022-12-27T09:32:02.338Z,6.93
2022-12-27T09:33:02.132Z,6.95
2022-12-27T09:34:02.109Z,6.96
2022-12-27T09:35:02.212Z,6.99
2022-12-27T09:36:02.143Z,6.99
2022-12-27T09:37:02.308Z,7.00
2022-12-27T09:38:02.692Z,7.03
2022-12-27T09:39:02.396Z,7.05
2022-12-27T09:40:02.327Z,7.08
2022-12-27T09:41:02.702Z,7.10
2022-12-27T09:43:15.398Z,7.14
2022-12-27T09:44:02.239Z,7.16
2022-12-27T09:45:02.072Z,7.18
2022-12-27T09:46:02.593Z,7.21
2022-12-27T09:47:02.559Z,7.24
2022-12-27T09:48:02.307Z,7.25
2022-12-27T09:49:02.628Z,7.25
2022-12-27T09:50:02.658Z,7.27
2022-12-27T09:51:02.945Z,7.30
2022-12-27T09:52:03.085Z,7.33
2022-12-27T09:53:03.190Z,7.34
2022-12-27T09:54:03.072Z,7.36
2022-12-27T09:55:05.281Z,7.38
2022-12-27T09:56:02.956Z,7.44
2022-12-27T09:57:19.613Z,7.52
2022-12-27T09:58:02.009Z,7.58
2022-12-27T09:59:02.521Z,7.64
2022-12-27T10:00:02.485Z,7.67
2022-12-27T10:01:02.684Z,7.75
2022-12-27T10:02:03.022Z,7.85
2022-12-27T10:03:02.975Z,7.94
2022-12-27T10:04:03.140Z,8.00
2022-12-27T10:05:22.970Z,8.06
2022-12-27T10:06:02.772Z,8.12
2022-12-27T10:07:03.197Z,8.16
2022-12-27T10:08:03.243Z,8.19
2022-12-27T10:09:03.160Z,8.21
2022-12-27T10:10:02.949Z,8.23
2022-12-27T10:11:03.455Z,8.20
2022-12-27T10:12:02.786Z,8.17
2022-12-27T10:13:03.113Z,8.15
2022-12-27T10:14:02.620Z,8.13
2022-12-27T10:15:02.567Z,8.08
2022-12-27T10:16:03.198Z,8.02
2022-12-27T10:17:03.339Z,7.96
2022-12-27T10:18:03.235Z,7.96
2022-12-27T10:19:03.487Z,7.97
2022-12-27T10:20:03.198Z,7.94
2022-12-27T10:21:03.224Z,7.94
2022-12-27T10:22:02.883Z,7.95
2022-12-27T10:23:06.131Z,7.96
2022-12-27T10:24:02.975Z,7.97
2022-12-27T10:25:02.872Z,8.03
2022-12-27T10:26:02.553Z,8.11
2022-12-27T10:27:03.133Z,8.21
2022-12-27T10:28:02.991Z,8.30
2022-12-27T10:29:02.715Z,8.40
2022-12-27T10:30:02.813Z,8.50
2022-12-27T10:31:03.108Z,8.58
2022-12-27T10:32:02.721Z,8.68
2022-12-27T10:33:02.421Z,8.79
2022-12-27T10:34:05.065Z,8.86
2022-12-27T10:35:03.078Z,8.93
2022-12-27T10:36:02.580Z,9.00
2022-12-27T10:37:03.212Z,9.09
2022-12-27T10:38:03.157Z,9.15
2022-12-27T10:39:03.285Z,9.21
2022-12-27T10:40:03.226Z,9.23
2022-12-27T10:41:03.281Z,9.25
2022-12-27T10:42:03.277Z,9.30
2022-12-27T10:43:03.279Z,9.36
2022-12-27T10:44:03.283Z,9.42
2022-12-27T10:45:03.451Z,9.48
2022-12-27T10:46:02.983Z,9.41
2022-12-27T10:47:02.689Z,9.46
2022-12-27T10:48:02.685Z,9.54
2022-12-27T10:50:02.648Z,9.63
2022-12-27T10:51:02.290Z,9.72
2022-12-27T10:52:03.134Z,9.77
2022-12-27T10:53:03.298Z,9.80
2022-12-27T10:54:02.954Z,9.84
2022-12-27T10:55:02.785Z,9.83
2022-12-27T10:56:03.183Z,9.83
2022-12-27T10:57:03.460Z,9.80
2022-12-27T10:58:02.918Z,9.77
2022-12-27T10:59:03.549Z,9.78
2022-12-27T11:00:03.503Z,9.79
2022-12-27T11:01:03.097Z,9.84
2022-12-27T11:02:02.977Z,9.89
2022-12-27T11:03:02.983Z,9.96
2022-12-27T11:04:02.615Z,10.09
2022-12-27T11:05:02.644Z,10.22
2022-12-27T11:06:02.640Z,10.28
2022-12-27T11:07:03.321Z,10.25
2022-12-27T11:08:02.745Z,10.25
2022-12-27T11:09:02.789Z,10.27
2022-12-27T11:10:03.127Z,10.23
2022-12-27T11:11:03.152Z,10.15
2022-12-27T11:12:02.929Z,10.10
2022-12-27T11:13:02.887Z,9.98
2022-12-27T11:14:02.295Z,9.84
2022-12-27T11:15:02.329Z,9.78
2022-12-27T11:16:02.967Z,9.63
2022-12-27T11:17:03.097Z,9.52
2022-12-27T11:18:02.635Z,9.46
2022-12-27T11:19:03.014Z,9.39
2022-12-27T11:20:03.000Z,9.35
2022-12-27T11:21:02.759Z,9.37
2022-12-27T11:22:03.392Z,9.35
2022-12-27T11:23:03.439Z,9.36
2022-12-27T11:24:02.999Z,9.38
2022-12-27T11:25:02.773Z,9.36
2022-12-27T11:26:03.217Z,9.32
2022-12-27T11:27:02.395Z,9.34
2022-12-27T11:28:02.485Z,9.29
2022-12-27T11:29:02.610Z,9.26
2022-12-27T11:30:02.875Z,9.23
2022-12-27T11:31:02.525Z,9.24
2022-12-27T11:32:02.912Z,9.27
2022-12-27T11:33:03.160Z,9.32
2022-12-27T11:34:03.064Z,9.29
2022-12-27T11:35:03.403Z,9.25
2022-12-27T11:36:03.306Z,9.22
2022-12-27T11:37:03.453Z,9.25
2022-12-27T11:38:02.898Z,9.25
2022-12-27T11:39:03.054Z,9.27
2022-12-27T11:40:02.712Z,9.34
2022-12-27T11:41:02.941Z,9.35
2022-12-27T11:42:03.095Z,9.44
2022-12-27T11:43:02.422Z,9.54
2022-12-27T11:44:02.718Z,9.71
2022-12-27T11:45:02.558Z,9.91
2022-12-27T11:46:02.561Z,10.05
2022-12-27T11:47:02.509Z,10.16
2022-12-27T11:48:03.386Z,10.32
2022-12-27T11:49:03.224Z,10.45
2022-12-27T11:50:03.441Z,10.52
2022-12-27T11:51:03.182Z,10.50
2022-12-27T11:52:03.140Z,10.52
2022-12-27T11:53:03.006Z,10.58
2022-12-27T11:54:03.076Z,10.62
2022-12-27T11:55:02.762Z,10.70
2022-12-27T11:56:02.905Z,10.79
2022-12-27T11:57:03.088Z,10.88
2022-12-27T11:58:02.959Z,10.92
2022-12-27T11:59:03.034Z,10.86
2022-12-27T12:00:02.872Z,10.84
2022-12-27T12:01:05.732Z,10.81
2022-12-27T12:02:02.848Z,10.80
2022-12-27T12:03:02.934Z,10.74
2022-12-27T12:04:02.627Z,10.69
2022-12-27T12:05:02.606Z,10.62
2022-12-27T12:06:02.636Z,10.54
2022-12-27T12:07:02.833Z,10.43
2022-12-27T12:08:02.400Z,10.34
2022-12-27T12:09:02.383Z,10.29
2022-12-27T12:10:02.138Z,10.19
2022-12-27T12:11:02.123Z,10.13
2022-12-27T12:12:01.963Z,10.13
2022-12-27T12:13:02.509Z,10.13
2022-12-27T12:14:02.304Z,10.14
2022-12-27T12:15:02.383Z,10.11
2022-12-27T12:16:02.326Z,10.00
2022-12-27T12:17:02.719Z,9.94
2022-12-27T12:18:02.246Z,9.91
2022-12-27T12:19:02.542Z,9.91
2022-12-27T12:21:01.972Z,9.88
2022-12-27T12:22:01.852Z,9.79
2022-12-27T12:23:02.196Z,9.76
2022-12-27T12:24:02.702Z,9.75
2022-12-27T12:25:02.279Z,9.75
2022-12-27T12:26:02.584Z,9.77
2022-12-27T12:27:02.457Z,9.77
2022-12-27T12:28:02.020Z,9.76
2022-12-27T12:29:01.907Z,9.71
2022-12-27T12:30:02.227Z,9.69
2022-12-27T12:31:02.413Z,9.70
2022-12-27T12:32:01.774Z,9.75
2022-12-27T12:33:02.258Z,9.79
2022-12-27T12:34:02.358Z,9.83
2022-12-27T12:35:01.909Z,9.89
2022-12-27T12:36:01.908Z,9.94
2022-12-27T12:37:02.400Z,9.99
2022-12-27T12:38:02.685Z,10.01
2022-12-27T12:39:02.554Z,9.98
2022-12-27T12:40:02.359Z,10.00
2022-12-27T12:41:02.287Z,9.98
2022-12-27T12:42:02.933Z,9.90
2022-12-27T12:43:02.420Z,9.87
2022-12-27T12:44:02.091Z,9.92
2022-12-27T12:45:02.008Z,9.96
2022-12-27T12:46:01.911Z,9.98
2022-12-27T12:47:02.080Z,10.02
2022-12-27T12:48:02.742Z,10.06
2022-12-27T12:49:02.234Z,10.04
2022-12-27T12:50:05.411Z,10.01
2022-12-27T12:51:02.381Z,10.00
2022-12-27T12:52:02.290Z,10.01
2022-12-27T12:53:02.475Z,9.97
2022-12-27T12:54:02.351Z,9.91
2022-12-27T12:55:02.419Z,9.90
2022-12-27T12:56:02.699Z,9.90
2022-12-27T12:57:02.554Z,9.93
2022-12-27T12:58:01.769Z,9.91
2022-12-27T12:59:02.188Z,9.93
2022-12-27T13:00:01.696Z,9.95
2022-12-27T13:01:02.246Z,9.98
2022-12-27T13:02:02.119Z,9.99
2022-12-27T13:03:02.758Z,10.01
2022-12-27T13:04:02.321Z,10.06
2022-12-27T13:05:02.490Z,10.13
2022-12-27T13:06:02.276Z,10.20
2022-12-27T13:07:02.637Z,10.27
2022-12-27T13:08:01.691Z,10.27
2022-12-27T13:09:01.905Z,10.28
2022-12-27T13:10:02.017Z,10.32
2022-12-27T13:11:02.029Z,10.35
2022-12-27T13:12:01.877Z,10.44
2022-12-27T13:13:02.392Z,10.55
2022-12-27T13:14:02.187Z,10.61
2022-12-27T13:15:02.257Z,10.63
2022-12-27T13:16:02.575Z,10.60
2022-12-27T13:17:01.855Z,10.61
2022-12-27T13:18:02.091Z,10.63
2022-12-27T13:19:02.338Z,10.65
2022-12-27T13:20:02.374Z,10.58